createdAt,value
2022-10-19T00:09:01.032Z,5.60
2022-10-19T00:19:07.567Z,5.30
2022-10-19T00:29:13.958Z,6.90
2022-10-19T00:39:18.955Z,5.50
2022-10-19T00:49:25.566Z,5.07
2022-10-19T00:59:31.731Z,5.25
2022-10-19T01:09:36.463Z,5.03
2022-10-19T01:20:08.826Z,4.93
2022-10-19T01:30:18.626Z,5.40
2022-10-19T01:40:29.158Z,5.50
2022-10-19T01:50:39.420Z,5.20
2022-10-19T02:00:46.754Z,5.50
2022-10-19T02:10:51.788Z,5.95
2022-10-19T02:20:55.293Z,5.25
2022-10-19T02:31:00.868Z,5.68
2022-10-19T02:41:12.258Z,5.65
2022-10-19T02:51:36.504Z,5.10
2022-10-19T03:01:39.555Z,6.00
2022-10-19T03:11:43.912Z,5.35
2022-10-19T03:21:46.909Z,5.05
2022-10-19T03:31:51.402Z,5.78
2022-10-19T03:41:54.428Z,5.30
2022-10-19T03:51:58.754Z,5.65
2022-10-19T04:02:01.726Z,4.80
2022-10-19T04:12:06.602Z,5.60
2022-10-19T04:22:09.562Z,5.33
2022-10-19T04:32:13.932Z,5.20
2022-10-19T04:42:16.916Z,5.38
2022-10-19T04:52:21.301Z,5.40
2022-10-19T05:02:24.354Z,5.53
2022-10-19T05:12:28.728Z,5.73
2022-10-19T05:22:31.730Z,5.57
2022-10-19T05:32:36.607Z,5.50
2022-10-19T05:42:39.603Z,5.30
2022-10-19T05:52:43.930Z,5.60
2022-10-19T06:02:46.908Z,5.57
2022-10-19T06:12:51.248Z,5.20
2022-10-19T06:22:54.249Z,5.67
2022-10-19T06:32:59.955Z,5.37
2022-10-19T06:43:03.142Z,5.30
2022-10-19T06:53:07.498Z,5.37
2022-10-19T07:03:10.535Z,5.37
2022-10-19T07:13:15.264Z,5.72
2022-10-19T07:23:18.259Z,5.63
2022-10-19T07:33:22.652Z,5.88
2022-10-19T07:43:25.746Z,5.47
2022-10-19T07:53:30.440Z,5.63
2022-10-19T08:13:59.542Z,6.32
2022-10-19T08:24:02.653Z,8.30
2022-10-19T08:34:07.290Z,9.90
2022-10-19T08:44:35.373Z,9.50
2022-10-19T08:54:47.858Z,10.15
2022-10-19T09:04:58.204Z,10.98
2022-10-19T09:15:07.314Z,10.30
2022-10-19T09:25:15.289Z,11.95
2022-10-19T09:35:28.614Z,12.52
2022-10-19T09:45:36.799Z,13.85
2022-10-19T09:55:44.504Z,14.90
2022-10-19T10:05:48.817Z,15.75
2022-10-19T10:15:58.610Z,14.85
2022-10-19T10:26:02.547Z,15.05
2022-10-19T10:36:09.883Z,15.07
2022-10-19T10:46:17.673Z,16.92
2022-10-19T10:56:28.358Z,17.38
2022-10-19T11:06:33.735Z,16.98
2022-10-19T11:16:44.557Z,16.35
2022-10-19T11:27:02.231Z,17.15
2022-10-19T11:37:19.894Z,16.92
2022-10-19T11:47:42.113Z,15.88
2022-10-19T11:57:52.553Z,14.90
2022-10-19T12:08:07.506Z,16.92
2022-10-19T12:18:17.343Z,18.10
2022-10-19T12:28:25.787Z,16.38
2022-10-19T12:38:40.980Z,15.00
2022-10-19T12:48:48.185Z,15.38
2022-10-19T12:58:59.691Z,15.18
2022-10-19T13:09:06.086Z,15.88
2022-10-19T13:19:23.563Z,14.40
2022-10-19T13:29:27.811Z,13.77
2022-10-19T13:39:32.278Z,15.05
2022-10-19T13:50:00.154Z,14.45
2022-10-19T14:00:22.704Z,14.20
2022-10-19T14:10:32.800Z,13.80
2022-10-19T14:20:40.005Z,14.48
2022-10-19T14:30:43.048Z,14.80
2022-10-19T14:40:47.464Z,14.00
2022-10-19T14:50:53.796Z,14.80
2022-10-19T15:00:58.356Z,14.43
2022-10-19T15:11:01.715Z,14.77
2022-10-19T15:21:13.944Z,15.10
2022-10-19T15:31:19.788Z,15.15
2022-10-19T15:41:30.930Z,15.18
2022-10-19T15:51:42.688Z,15.18
2022-10-19T16:01:53.677Z,16.80
2022-10-19T16:11:59.210Z,16.73
2022-10-19T16:22:03.565Z,15.60
2022-10-19T16:32:06.969Z,16.75
2022-10-19T16:42:11.353Z,16.38
2022-10-19T16:52:14.943Z,16.42
2022-10-19T17:02:19.619Z,17.33
2022-10-19T17:12:22.617Z,17.88
2022-10-19T17:22:27.283Z,17.15
2022-10-19T17:32:30.264Z,17.92
2022-10-19T17:42:36.576Z,17.10
2022-10-19T17:52:39.757Z,17.88
2022-10-19T18:02:46.325Z,19.05
2022-10-19T18:12:49.382Z,19.90
2022-10-19T18:22:53.779Z,18.33
2022-10-19T18:32:56.752Z,18.88
2022-10-19T18:43:01.114Z,19.10
2022-10-19T18:53:04.104Z,19.50
2022-10-19T19:03:08.479Z,20.13
2022-10-19T19:13:11.482Z,21.85
2022-10-19T19:23:15.811Z,21.08
2022-10-19T19:33:18.828Z,21.10
2022-10-19T19:43:23.191Z,23.75
2022-10-19T19:53:26.232Z,22.40
2022-10-19T20:03:30.652Z,21.25
2022-10-19T20:13:34.349Z,21.67
2022-10-19T20:23:38.888Z,23.67
2022-10-19T20:33:43.870Z,20.65
2022-10-19T20:43:48.604Z,20.83
2022-10-19T20:53:52.315Z,23.27
2022-10-19T21:04:00.479Z,22.17
2022-10-19T21:14:05.623Z,22.08
2022-10-19T21:24:12.646Z,23.05
2022-10-19T21:34:17.566Z,25.33
2022-10-19T21:44:23.199Z,25.58
2022-10-19T21:54:27.608Z,26.17
2022-10-19T22:04:32.007Z,25.52
2022-10-19T22:14:34.974Z,24.75
2022-10-19T22:24:39.631Z,23.92
2022-10-19T22:34:42.611Z,22.85
2022-10-19T22:44:46.984Z,23.25
2022-10-19T22:54:51.100Z,23.05
2022-10-19T23:04:55.475Z,22.85
2022-10-19T23:14:58.628Z,23.60
2022-10-19T23:25:03.150Z,24.83
2022-10-19T23:35:07.308Z,24.33
2022-10-19T23:45:13.051Z,23.60
2022-10-19T23:55:16.204Z,22.35
